| time (UTC) | temp F | wind direction | speed knots | gust knots | rain 1hr in | rain 24hr in | rain mn in | humidity % | barometer mb |
| 20260505204540 | 77 | 216 | 2.6 | 10.4 | 0.00 | 0.00 | 0.00 | 27 | 1009.0 |
| 20260505204040 | 76 | 289 | 2.6 | 8.7 | 0.00 | 0.00 | 0.00 | 28 | 1009.0 |
| 20260505203539 | 76 | 257 | 2.6 | 8.7 | 0.00 | 0.00 | 0.00 | 28 | 1009.2 |
| 20260505203050 | 77 | 261 | 0.9 | 9.6 | 0.00 | 0.00 | 0.00 | 27 | 1009.1 |
| 20260505202539 | 77 | 239 | 2.6 | 10.4 | 0.00 | 0.00 | 0.00 | 27 | 1009.1 |
| 20260505202039 | 78 | 169 | 4.3 | 10.4 | 0.00 | 0.00 | 0.00 | 26 | 1009.1 |
| 20260505201538 | 78 | 302 | 1.7 | 6.1 | 0.00 | 0.00 | 0.00 | 27 | 1009.1 |
| 20260505201037 | 78 | 223 | 0.9 | 7.8 | 0.00 | 0.00 | 0.00 | 26 | 1009.1 |
| 20260505200537 | 78 | 240 | 2.6 | 8.7 | 0.00 | 0.00 | 0.00 | 28 | 1009.1 |
| 20260505200034 | 77 | 186 | 2.6 | 8.7 | 0.00 | 0.00 | 0.00 | 28 | 1009.2 |
| 20260505195536 | 77 | 195 | 1.7 | 7.8 | 0.00 | 0.00 | 0.00 | 28 | 1009.3 |
| 20260505195033 | 76 | 219 | 1.7 | 8.7 | 0.00 | 0.00 | 0.00 | 29 | 1009.3 |
| 20260505194533 | 76 | 235 | 1.7 | 8.7 | 0.00 | 0.00 | 0.00 | 29 | 1009.6 |
| 20260505194034 | 76 | 269 | 2.6 | 8.7 | 0.00 | 0.00 | 0.00 | 29 | 1009.5 |
| 20260505193532 | 76 | 271 | 3.5 | 7.0 | 0.00 | 0.00 | 0.00 | 28 | 1009.6 |
| 20260505193032 | 76 | 200 | 1.7 | 6.1 | 0.00 | 0.00 | 0.00 | 28 | 1009.6 |
| 20260505192535 | 75 | 229 | 1.7 | 7.8 | 0.00 | 0.00 | 0.00 | 29 | 1009.6 |
| 20260505192032 | 75 | 188 | 1.7 | 10.4 | 0.00 | 0.00 | 0.00 | 30 | 1009.7 |
| 20260505191535 | 74 | 297 | 3.5 | 10.4 | 0.00 | 0.00 | 0.00 | 30 | 1009.7 |
| 20260505191032 | 75 | 261 | 2.6 | 10.4 | 0.00 | 0.00 | 0.00 | 29 | 1009.7 |
| 20260505190531 | 75 | 220 | 1.7 | 8.7 | 0.00 | 0.00 | 0.00 | 29 | 1009.7 |
| 20260505190036 | 76 | 279 | 3.5 | 8.7 | 0.00 | 0.00 | 0.00 | 28 | 1009.8 |
| 20260505185530 | 76 | 198 | 0.9 | 5.2 | 0.00 | 0.00 | 0.00 | 29 | 1009.7 |
| 20260505185029 | 76 | 196 | 1.7 | 5.2 | 0.00 | 0.00 | 0.00 | 29 | 1009.8 |
| 20260505184541 | 75 | 195 | 2.6 | 6.1 | 0.00 | 0.00 | 0.00 | 30 | 1009.7 |
| 20260505184026 | 74 | 240 | 2.6 | 7.8 | 0.00 | 0.00 | 0.00 | 31 | 1009.7 |
| 20260505183525 | 74 | 269 | 2.6 | 7.8 | 0.00 | 0.00 | 0.00 | 30 | 1009.8 |
| 20260505183035 | 74 | 288 | 2.6 | 6.1 | 0.00 | 0.00 | 0.00 | 31 | 1009.9 |
| 20260505182528 | 74 | 229 | 2.6 | 7.8 | 0.00 | 0.00 | 0.00 | 32 | 1009.9 |
| 20260505182024 | 74 | 188 | 2.6 | 7.0 | 0.00 | 0.00 | 0.00 | 32 | 1010.0 |
| 20260505181524 | 74 | 245 | 2.6 | 9.6 | 0.00 | 0.00 | 0.00 | 31 | 1010.1 |
| 20260505181023 | 73 | 202 | 2.6 | 9.6 | 0.00 | 0.00 | 0.00 | 33 | 1010.0 |
| 20260505180525 | 73 | 292 | 2.6 | 11.3 | 0.00 | 0.00 | 0.00 | 33 | 1010.1 |
| 20260505180020 | 73 | 254 | 3.5 | 8.7 | 0.00 | 0.00 | 0.00 | 33 | 1010.1 |
| 20260505175519 | 73 | 250 | 1.7 | 7.0 | 0.00 | 0.00 | 0.00 | 34 | 1010.2 |
| 20260505175017 | 73 | 238 | 2.6 | 7.0 | 0.00 | 0.00 | 0.00 | 33 | 1010.1 |
| 20260505174516 | 73 | 295 | 3.5 | 7.0 | 0.00 | 0.00 | 0.00 | 33 | 1010.1 |
| 20260505174015 | 72 | 231 | 2.6 | 7.0 | 0.00 | 0.00 | 0.00 | 34 | 1010.1 |
| 20260505173513 | 72 | 247 | 2.6 | 10.4 | 0.00 | 0.00 | 0.00 | 35 | 1010.0 |
| 20260505173016 | 72 | 225 | 2.6 | 10.4 | 0.00 | 0.00 | 0.00 | 35 | 1010.1 |
| 20260505172511 | 72 | 211 | 2.6 | 7.8 | 0.00 | 0.00 | 0.00 | 35 | 1010.0 |
| 20260505172010 | 72 | 303 | 3.5 | 6.1 | 0.00 | 0.00 | 0.00 | 35 | 1009.9 |
| 20260505171508 | 72 | 294 | 1.7 | 7.8 | 0.00 | 0.00 | 0.00 | 35 | 1009.9 |
| 20260505171007 | 71 | 304 | 1.7 | 7.8 | 0.00 | 0.00 | 0.00 | 35 | 1009.9 |
| 20260505170505 | 71 | 202 | 0.0 | 9.6 | 0.00 | 0.00 | 0.00 | 36 | 1009.9 |
| 20260505170009 | 71 | 258 | 3.5 | 9.6 | 0.00 | 0.00 | 0.00 | 36 | 1009.9 |
| 20260505165503 | 71 | 320 | 1.7 | 5.2 | 0.00 | 0.00 | 0.00 | 36 | 1009.9 |
| 20260505165002 | 70 | 212 | 1.7 | 7.0 | 0.00 | 0.00 | 0.00 | 35 | 1010.0 |
| 20260505164501 | 70 | 216 | 2.6 | 7.0 | 0.00 | 0.00 | 0.00 | 35 | 1010.0 |
| 20260505164104 | 70 | 188 | 0.9 | 6.1 | 0.00 | 0.00 | 0.00 | 35 | 1010.0 |
| 20260505163600 | 70 | 219 | 0.9 | 8.7 | 0.00 | 0.00 | 0.00 | 36 | 1010.0 |
| 20260505163058 | 69 | 211 | 1.7 | 8.7 | 0.00 | 0.00 | 0.00 | 36 | 1009.9 |
| 20260505162557 | 69 | 209 | 1.7 | 7.8 | 0.00 | 0.00 | 0.00 | 35 | 1010.0 |
| 20260505162058 | 69 | 229 | 0.9 | 7.8 | 0.00 | 0.00 | 0.00 | 36 | 1009.9 |
| 20260505161557 | 69 | 260 | 1.7 | 6.1 | 0.00 | 0.00 | 0.00 | 36 | 1009.9 |
| 20260505161057 | 68 | 174 | 1.7 | 6.1 | 0.00 | 0.00 | 0.00 | 37 | 1009.9 |
| 20260505160556 | 68 | 266 | 0.9 | 6.1 | 0.00 | 0.00 | 0.00 | 37 | 1010.0 |
| 20260505153055 | 66 | 227 | 0.9 | 4.3 | 0.00 | 0.00 | 0.00 | 39 | 1010.1 |
| 20260505152556 | 66 | 198 | 0.9 | 4.3 | 0.00 | 0.00 | 0.00 | 39 | 1010.0 |
| 20260505152051 | 66 | 250 | 0.9 | 4.3 | 0.00 | 0.00 | 0.00 | 39 | 1010.0 |
| 20260505151551 | 65 | 213 | 0.9 | 3.5 | 0.00 | 0.00 | 0.00 | 40 | 1010.2 |
| 20260505151050 | 65 | 252 | 0.9 | 4.3 | 0.00 | 0.00 | 0.00 | 40 | 1010.2 |
| 20260505150549 | 65 | 233 | 0.9 | 5.2 | 0.00 | 0.00 | 0.00 | 40 | 1010.2 |
| 20260505140541 | 64 | 262 | 1.7 | 5.2 | 0.00 | 0.00 | 0.00 | 46 | 1009.7 |
| 20260505125034 | 62 | 268 | 1.7 | 4.3 | 0.00 | 0.00 | 0.00 | 53 | 1008.9 |
| 20260505124535 | 62 | 271 | 0.0 | 2.6 | 0.00 | 0.00 | 0.00 | 54 | 1008.9 |
| 20260505124033 | 62 | 322 | 0.9 | 2.6 | 0.00 | 0.00 | 0.00 | 54 | 1008.8 |
| 20260505123533 | 62 | 268 | 0.9 | 3.5 | 0.00 | 0.00 | 0.00 | 54 | 1008.8 |
| 20260505123034 | 62 | 235 | 0.0 | 3.5 | 0.00 | 0.00 | 0.00 | 55 | 1008.8 |
| 20260505122533 | 62 | 248 | 0.0 | 3.5 | 0.00 | 0.00 | 0.00 | 55 | 1008.8 |
| 20260505122033 | 62 | 286 | 0.9 | 3.5 | 0.00 | 0.00 | 0.00 | 55 | 1008.6 |
| 20260505121538 | 62 | 231 | 0.0 | 2.6 | 0.00 | 0.00 | 0.00 | 56 | 1008.8 |
| 20260505121033 | 62 | 226 | 0.0 | 2.6 | 0.00 | 0.00 | 0.00 | 55 | 1008.8 |
| 20260505120535 | 62 | 216 | 0.0 | 2.6 | 0.00 | 0.00 | 0.00 | 55 | 1008.7 |
| 20260505120032 | 62 | 231 | 0.0 | 2.6 | 0.00 | 0.00 | 0.00 | 56 | 1008.6 |
| 20260505115531 | 62 | 225 | 0.0 | 1.7 | 0.00 | 0.00 | 0.00 | 56 | 1008.6 |
| 20260505115031 | 62 | 263 | 0.0 | 2.6 | 0.00 | 0.00 | 0.00 | 56 | 1008.5 |
| 20260505114530 | 63 | 254 | 0.0 | 2.6 | 0.00 | 0.00 | 0.00 | 57 | 1008.5 |
| 20260505114030 | 63 | 217 | 0.9 | 2.6 | 0.00 | 0.00 | 0.00 | 57 | 1008.5 |
| 20260505113529 | 63 | 217 | 0.0 | 2.6 | 0.00 | 0.00 | 0.00 | 57 | 1008.6 |
| 20260505113038 | 63 | 256 | 0.0 | 1.7 | 0.00 | 0.00 | 0.00 | 56 | 1008.5 |
| 20260505112527 | 63 | 192 | 0.0 | 1.7 | 0.00 | 0.00 | 0.00 | 55 | 1008.5 |
| 20260505112027 | 64 | 187 | 0.0 | 0.9 | 0.00 | 0.00 | 0.00 | 55 | 1008.5 |
| 20260505111539 | 64 | 195 | 0.0 | 1.7 | 0.00 | 0.00 | 0.00 | 54 | 1008.4 |
| 20260505111028 | 64 | 193 | 0.0 | 1.7 | 0.00 | 0.00 | 0.00 | 54 | 1008.4 |
| 20260505110524 | 64 | 209 | 0.0 | 1.7 | 0.00 | 0.00 | 0.00 | 54 | 1008.4 |
| 20260505102019 | 65 | 207 | 0.9 | 4.3 | 0.00 | 0.00 | 0.00 | 51 | 1008.6 |
| 20260505101529 | 65 | 186 | 0.9 | 4.3 | 0.00 | 0.00 | 0.00 | 51 | 1008.6 |
| 20260505101018 | 66 | 213 | 0.9 | 4.3 | 0.00 | 0.00 | 0.00 | 51 | 1008.6 |
| 20260505100517 | 66 | 200 | 0.9 | 4.3 | 0.00 | 0.00 | 0.00 | 51 | 1008.6 |
| 20260505100016 | 66 | 193 | 0.0 | 3.5 | 0.00 | 0.00 | 0.00 | 51 | 1008.7 |
| 20260505095516 | 66 | 232 | 0.9 | 3.5 | 0.00 | 0.00 | 0.00 | 51 | 1008.8 |
| 20260505095015 | 66 | 251 | 0.0 | 3.5 | 0.00 | 0.00 | 0.00 | 51 | 1008.8 |
| 20260505094514 | 66 | 239 | 0.9 | 3.5 | 0.00 | 0.00 | 0.00 | 51 | 1008.9 |
| 20260505094013 | 66 | 243 | 0.0 | 6.1 | 0.00 | 0.00 | 0.00 | 51 | 1009.0 |
| 20260505093512 | 66 | 234 | 0.9 | 6.1 | 0.00 | 0.00 | 0.00 | 50 | 1009.1 |
| 20260505093012 | 66 | 257 | 2.6 | 5.2 | 0.00 | 0.00 | 0.00 | 50 | 1009.1 |
| 20260505092510 | 67 | 215 | 1.7 | 6.1 | 0.00 | 0.00 | 0.00 | 50 | 1009.1 |
| 20260505092009 | 67 | 249 | 0.9 | 6.1 | 0.00 | 0.00 | 0.00 | 50 | 1009.2 |
| 20260505091510 | 67 | 259 | 1.7 | 10.4 | 0.00 | 0.00 | 0.00 | 49 | 1009.4 |
| 20260505091010 | 67 | 269 | 3.5 | 10.4 | 0.00 | 0.00 | 0.00 | 49 | 1009.4 |
| 20260505090508 | 67 | 264 | 3.5 | 10.4 | 0.00 | 0.00 | 0.00 | 48 | 1009.3 |
| 20260505090007 | 67 | 207 | 3.5 | 8.7 | 0.00 | 0.00 | 0.00 | 48 | 1009.3 |
| 20260505085509 | 67 | 273 | 3.5 | 8.7 | 0.00 | 0.00 | 0.00 | 47 | 1009.3 |
| 20260505085007 | 67 | 241 | 3.5 | 7.8 | 0.00 | 0.00 | 0.00 | 48 | 1009.6 |
| 20260505084521 | 67 | 275 | 1.7 | 7.8 | 0.00 | 0.00 | 0.00 | 49 | 1009.4 |
| 20260505084004 | 67 | 225 | 3.5 | 7.8 | 0.00 | 0.00 | 0.00 | 49 | 1009.4 |
| 20260505083503 | 68 | 257 | 3.5 | 7.0 | 0.00 | 0.00 | 0.00 | 49 | 1009.6 |
| 20260505083005 | 68 | 241 | 0.9 | 7.0 | 0.00 | 0.00 | 0.00 | 49 | 1009.6 |
| 20260505082503 | 68 | 292 | 2.6 | 8.7 | 0.00 | 0.00 | 0.00 | 49 | 1009.7 |
| 20260505082003 | 68 | 254 | 2.6 | 7.0 | 0.00 | 0.00 | 0.00 | 48 | 1009.8 |
| 20260505081501 | 68 | 195 | 2.6 | 7.0 | 0.00 | 0.00 | 0.00 | 47 | 1009.8 |
| 20260505081002 | 68 | 281 | 1.7 | 5.2 | 0.00 | 0.00 | 0.00 | 47 | 1009.9 |
| 20260505080503 | 68 | 275 | 1.7 | 8.7 | 0.00 | 0.00 | 0.00 | 46 | 1010.0 |
| 20260505080002 | 68 | 213 | 2.6 | 8.7 | 0.00 | 0.00 | 0.00 | 47 | 1010.0 |
| 20260505075600 | 68 | 221 | 1.7 | 6.1 | 0.00 | 0.00 | 0.00 | 47 | 1010.0 |
| 20260505075059 | 68 | 258 | 1.7 | 6.1 | 0.00 | 0.00 | 0.00 | 47 | 1009.9 |
| 20260505074559 | 69 | 238 | 1.7 | 5.2 | 0.00 | 0.00 | 0.00 | 44 | 1010.0 |
| 20260505074057 | 69 | 233 | 1.7 | 5.2 | 0.00 | 0.00 | 0.00 | 41 | 1010.0 |
| 20260505073557 | 69 | 240 | 0.0 | 4.3 | 0.00 | 0.00 | 0.00 | 39 | 1009.9 |
| 20260505073057 | 69 | 231 | 1.7 | 4.3 | 0.00 | 0.00 | 0.00 | 39 | 1009.9 |
| 20260505072600 | 69 | 238 | 0.9 | 5.2 | 0.00 | 0.00 | 0.00 | 37 | 1009.6 |
| 20260505072056 | 69 | 267 | 0.9 | 5.2 | 0.00 | 0.00 | 0.00 | 36 | 1009.7 |
| 20260505071559 | 69 | 256 | 0.9 | 5.2 | 0.00 | 0.00 | 0.00 | 36 | 1009.7 |
| 20260505071053 | 70 | 253 | 1.7 | 6.1 | 0.00 | 0.00 | 0.00 | 35 | 1009.6 |
| 20260505070552 | 70 | 280 | 2.6 | 6.1 | 0.00 | 0.00 | 0.00 | 34 | 1009.6 |
| 20260505065551 | 70 | 239 | 1.7 | 7.0 | 0.00 | 0.00 | 0.00 | 33 | 1009.7 |
| 20260505065051 | 70 | 239 | 0.0 | 4.3 | 0.00 | 0.00 | 0.00 | 35 | 1009.6 |
| 20260505064555 | 70 | 240 | 0.0 | 4.3 | 0.00 | 0.00 | 0.00 | 34 | 1009.6 |
| 20260505064049 | 70 | 231 | 0.0 | 3.5 | 0.00 | 0.00 | 0.00 | 35 | 1009.7 |
| 20260505063550 | 70 | 261 | 0.9 | 3.5 | 0.00 | 0.00 | 0.00 | 34 | 1009.4 |
| 20260505063049 | 70 | 268 | 0.9 | 4.3 | 0.00 | 0.00 | 0.00 | 35 | 1009.5 |
| 20260505062549 | 70 | 255 | 0.9 | 6.1 | 0.00 | 0.00 | 0.00 | 35 | 1009.6 |
| 20260505062052 | 70 | 290 | 2.6 | 5.2 | 0.00 | 0.00 | 0.00 | 36 | 1009.5 |
| 20260505061610 | 70 | 261 | 0.0 | 4.3 | 0.00 | 0.00 | 0.00 | 38 | 1009.5 |
| 20260505061047 | 70 | 261 | 1.7 | 5.2 | 0.00 | 0.00 | 0.00 | 39 | 1009.4 |
| 20260505060547 | 70 | 259 | 1.7 | 4.3 | 0.00 | 0.00 | 0.00 | 39 | 1009.4 |
| 20260505060053 | 71 | 242 | 0.0 | 2.6 | 0.00 | 0.00 | 0.00 | 39 | 1009.3 |
| 20260505055550 | 71 | 201 | 0.9 | 2.6 | 0.00 | 0.00 | 0.00 | 39 | 1009.2 |
| 20260505055047 | 71 | 225 | 0.9 | 3.5 | 0.00 | 0.00 | 0.00 | 39 | 1009.1 |
| 20260505054549 | 71 | 255 | 0.9 | 3.5 | 0.00 | 0.00 | 0.00 | 39 | 1009.0 |
| 20260505054045 | 71 | 252 | 0.9 | 6.1 | 0.00 | 0.00 | 0.00 | 39 | 1009.2 |
| 20260505053545 | 71 | 223 | 1.7 | 6.1 | 0.00 | 0.00 | 0.00 | 39 | 1009.2 |
| 20260505053045 | 71 | 231 | 0.9 | 2.6 | 0.00 | 0.00 | 0.00 | 39 | 1009.3 |
| 20260505052549 | 71 | 198 | 0.9 | 3.5 | 0.00 | 0.00 | 0.00 | 39 | 1009.4 |
| 20260505052045 | 71 | 227 | 0.0 | 3.5 | 0.00 | 0.00 | 0.00 | 39 | 1009.2 |
| 20260505051544 | 71 | 272 | 1.7 | 4.3 | 0.00 | 0.00 | 0.00 | 39 | 1009.2 |
| 20260505051045 | 71 | 293 | 0.9 | 4.3 | 0.00 | 0.00 | 0.00 | 39 | 1009.3 |
| 20260505050543 | 71 | 297 | 1.7 | 4.3 | 0.00 | 0.00 | 0.00 | 39 | 1009.5 |
| 20260505041540 | 71 | 262 | 0.9 | 2.6 | 0.00 | 0.00 | 0.00 | 41 | 1009.4 |
| 20260505041044 | 71 | 225 | 0.9 | 4.3 | 0.00 | 0.00 | 0.00 | 41 | 1009.4 |
| 20260505040539 | 71 | 260 | 0.9 | 4.3 | 0.00 | 0.00 | 0.00 | 41 | 1009.3 |
| 20260505040055 | 72 | 275 | 0.0 | 4.3 | 0.00 | 0.00 | 0.00 | 41 | 1009.3 |
| 20260505035542 | 72 | 282 | 1.7 | 6.1 | 0.00 | 0.00 | 0.00 | 41 | 1009.4 |
| 20260505035040 | 72 | 234 | 3.5 | 6.1 | 0.00 | 0.00 | 0.00 | 41 | 1009.3 |
| 20260505034542 | 72 | 250 | 2.6 | 7.0 | 0.00 | 0.00 | 0.00 | 42 | 1009.3 |
| 20260505034037 | 72 | 275 | 1.7 | 5.2 | 0.00 | 0.00 | 0.00 | 42 | 1009.2 |
| 20260505033537 | 72 | 241 | 1.7 | 4.3 | 0.00 | 0.00 | 0.00 | 41 | 1009.2 |
| 20260505033037 | 72 | 279 | 0.9 | 4.3 | 0.00 | 0.00 | 0.00 | 41 | 1009.1 |
| 20260505032537 | 72 | 300 | 0.9 | 4.3 | 0.00 | 0.00 | 0.00 | 41 | 1008.8 |
| 20260505032037 | 72 | 251 | 0.0 | 2.6 | 0.00 | 0.00 | 0.00 | 40 | 1008.8 |
| 20260505031546 | 72 | 292 | 0.0 | 2.6 | 0.00 | 0.00 | 0.00 | 40 | 1008.6 |
| 20260505031036 | 72 | 266 | 1.7 | 2.6 | 0.00 | 0.00 | 0.00 | 40 | 1008.7 |
| 20260505030536 | 72 | 281 | 0.9 | 4.3 | 0.00 | 0.00 | 0.00 | 39 | 1008.6 |
| 20260505030040 | 72 | 265 | 0.9 | 4.3 | 0.00 | 0.00 | 0.00 | 39 | 1008.6 |
| 20260505025536 | 72 | 294 | 0.9 | 3.5 | 0.00 | 0.00 | 0.00 | 38 | 1008.6 |
| 20260505025038 | 72 | 271 | 0.0 | 3.5 | 0.00 | 0.00 | 0.00 | 38 | 1008.5 |
| 20260505024537 | 72 | 279 | 0.9 | 4.3 | 0.00 | 0.00 | 0.00 | 37 | 1008.4 |
| 20260505024035 | 72 | 250 | 1.7 | 4.3 | 0.00 | 0.00 | 0.00 | 36 | 1008.5 |
| 20260505023535 | 72 | 264 | 0.9 | 3.5 | 0.00 | 0.00 | 0.00 | 36 | 1008.5 |
| 20260505023035 | 72 | 290 | 1.7 | 4.3 | 0.00 | 0.00 | 0.00 | 36 | 1008.6 |
| 20260505022535 | 73 | 240 | 1.7 | 5.2 | 0.00 | 0.00 | 0.00 | 35 | 1008.6 |
| 20260505022034 | 73 | 259 | 0.0 | 5.2 | 0.00 | 0.00 | 0.00 | 35 | 1008.6 |
| 20260505021536 | 73 | 261 | 0.9 | 3.5 | 0.00 | 0.00 | 0.00 | 34 | 1008.6 |
| 20260505021034 | 73 | 226 | 0.9 | 4.3 | 0.00 | 0.00 | 0.00 | 34 | 1008.4 |
| 20260505020534 | 73 | 257 | 0.9 | 4.3 | 0.00 | 0.00 | 0.00 | 34 | 1008.4 |
| 20260505020040 | 73 | 279 | 0.9 | 4.3 | 0.00 | 0.00 | 0.00 | 34 | 1008.3 |
| 20260505015534 | 73 | 286 | 0.9 | 4.3 | 0.00 | 0.00 | 0.00 | 34 | 1008.3 |
| 20260505015034 | 73 | 186 | 0.9 | 5.2 | 0.00 | 0.00 | 0.00 | 34 | 1008.3 |
| 20260505014536 | 73 | 241 | 1.7 | 5.2 | 0.00 | 0.00 | 0.00 | 34 | 1008.4 |
| 20260505014034 | 73 | 229 | 1.7 | 6.1 | 0.00 | 0.00 | 0.00 | 33 | 1008.4 |
| 20260505013532 | 74 | 270 | 1.7 | 5.2 | 0.00 | 0.00 | 0.00 | 33 | 1008.5 |
| 20260505013033 | 74 | 278 | 0.9 | 4.3 | 0.00 | 0.00 | 0.00 | 33 | 1008.4 |
| 20260505012533 | 74 | 296 | 0.9 | 4.3 | 0.00 | 0.00 | 0.00 | 33 | 1008.3 |
| 20260505012035 | 74 | 286 | 0.9 | 5.2 | 0.00 | 0.00 | 0.00 | 34 | 1008.2 |
| 20260505011534 | 74 | 216 | 0.0 | 5.2 | 0.00 | 0.00 | 0.00 | 33 | 1008.3 |
| 20260505011032 | 74 | 284 | 1.7 | 6.1 | 0.00 | 0.00 | 0.00 | 34 | 1008.4 |
| 20260505010535 | 74 | 263 | 1.7 | 7.0 | 0.00 | 0.00 | 0.00 | 34 | 1008.5 |
| 20260505010033 | 74 | 267 | 2.6 | 7.0 | 0.00 | 0.00 | 0.00 | 34 | 1008.4 |
| 20260505005532 | 74 | 281 | 0.9 | 4.3 | 0.00 | 0.00 | 0.00 | 34 | 1008.4 |
| 20260505005031 | 74 | 198 | 1.7 | 4.3 | 0.00 | 0.00 | 0.00 | 33 | 1008.4 |
| 20260505004532 | 74 | 189 | 0.9 | 5.2 | 0.00 | 0.00 | 0.00 | 33 | 1008.5 |
| 20260505004030 | 74 | 185 | 0.9 | 7.0 | 0.00 | 0.00 | 0.00 | 34 | 1008.4 |
| 20260505003530 | 74 | 241 | 0.9 | 5.2 | 0.00 | 0.00 | 0.00 | 33 | 1008.5 |
| 20260505003030 | 74 | 258 | 1.7 | 4.3 | 0.00 | 0.00 | 0.00 | 33 | 1008.5 |
| 20260505002530 | 75 | 228 | 0.9 | 5.2 | 0.00 | 0.00 | 0.00 | 33 | 1008.5 |
| 20260505002030 | 75 | 286 | 2.6 | 5.2 | 0.00 | 0.00 | 0.00 | 33 | 1008.6 |
| 20260505001530 | 75 | 250 | 1.7 | 5.2 | 0.00 | 0.00 | 0.00 | 32 | 1008.6 |
| 20260505001029 | 75 | 222 | 1.7 | 5.2 | 0.00 | 0.00 | 0.00 | 33 | 1008.7 |
| 20260505000529 | 75 | 165 | 0.0 | 5.2 | 0.00 | 0.00 | 0.00 | 33 | 1008.6 |
| 20260505000042 | 75 | 243 | 1.7 | 9.6 | 0.00 | 0.00 | 0.00 | 33 | 1008.6 |
| 20260504235529 | 76 | 317 | 2.6 | 9.6 | 0.00 | 0.00 | 0.00 | 34 | 1008.7 |
| 20260504235029 | 76 | 202 | 0.9 | 7.0 | 0.00 | 0.00 | 0.00 | 34 | 1008.6 |
| 20260504234528 | 76 | 238 | 0.9 | 6.1 | 0.00 | 0.00 | 0.00 | 35 | 1008.6 |
| 20260504234027 | 76 | 236 | 0.9 | 5.2 | 0.00 | 0.00 | 0.00 | 35 | 1008.6 |
| 20260504233527 | 76 | 176 | 0.9 | 6.1 | 0.00 | 0.00 | 0.00 | 36 | 1008.6 |
| 20260504233027 | 76 | 254 | 2.6 | 6.1 | 0.00 | 0.00 | 0.00 | 35 | 1008.5 |
| 20260504232528 | 77 | 290 | 0.9 | 6.1 | 0.00 | 0.00 | 0.00 | 35 | 1008.7 |
| 20260504232027 | 77 | 217 | 1.7 | 6.1 | 0.00 | 0.00 | 0.00 | 35 | 1008.7 |
| 20260504231527 | 77 | 231 | 0.9 | 6.1 | 0.00 | 0.00 | 0.00 | 34 | 1008.6 |
| 20260504231027 | 77 | 229 | 0.9 | 6.1 | 0.00 | 0.00 | 0.00 | 36 | 1008.6 |
| 20260504230527 | 77 | 283 | 1.7 | 6.1 | 0.00 | 0.00 | 0.00 | 35 | 1008.5 |
| 20260504230026 | 77 | 190 | 1.7 | 5.2 | 0.00 | 0.00 | 0.00 | 36 | 1008.6 |
| 20260504225531 | 77 | 265 | 2.6 | 5.2 | 0.00 | 0.00 | 0.00 | 36 | 1008.6 |
| 20260504225026 | 77 | 281 | 1.7 | 6.1 | 0.00 | 0.00 | 0.00 | 35 | 1008.5 |
| 20260504224526 | 77 | 225 | 1.7 | 6.1 | 0.00 | 0.00 | 0.00 | 36 | 1008.7 |
| 20260504224025 | 77 | 189 | 0.9 | 5.2 | 0.00 | 0.00 | 0.00 | 36 | 1008.7 |
| 20260504223525 | 77 | 192 | 1.7 | 6.1 | 0.00 | 0.00 | 0.00 | 35 | 1008.8 |
| 20260504223025 | 76 | 156 | 0.9 | 7.0 | 0.00 | 0.00 | 0.00 | 36 | 1008.9 |
| 20260504222524 | 76 | 294 | 1.7 | 7.0 | 0.00 | 0.00 | 0.00 | 36 | 1008.9 |
| 20260504222024 | 77 | 252 | 2.6 | 6.1 | 0.00 | 0.00 | 0.00 | 35 | 1009.0 |
| 20260504221527 | 77 | 213 | 0.9 | 6.1 | 0.00 | 0.00 | 0.00 | 37 | 1009.0 |
| 20260504221024 | 77 | 186 | 1.7 | 6.1 | 0.00 | 0.00 | 0.00 | 36 | 1009.0 |
| 20260504220524 | 77 | 279 | 0.9 | 7.0 | 0.00 | 0.00 | 0.00 | 36 | 1009.1 |
| 20260504220040 | 76 | 275 | 0.9 | 6.1 | 0.00 | 0.00 | 0.00 | 35 | 1009.2 |
| 20260504215523 | 77 | 182 | 1.7 | 6.1 | 0.00 | 0.00 | 0.00 | 37 | 1009.2 |
| 20260504215026 | 76 | 234 | 1.7 | 6.1 | 0.00 | 0.00 | 0.00 | 37 | 1009.3 |
| 20260504214524 | 76 | 254 | 2.6 | 7.0 | 0.00 | 0.00 | 0.00 | 37 | 1009.3 |
| 20260504214022 | 77 | 232 | 2.6 | 7.0 | 0.00 | 0.00 | 0.00 | 37 | 1009.3 |
| 20260504213524 | 77 | 214 | 1.7 | 5.2 | 0.00 | 0.00 | 0.00 | 39 | 1009.5 |
| 20260504213022 | 76 | 188 | 0.9 | 5.2 | 0.00 | 0.00 | 0.00 | 40 | 1009.7 |
| 20260504212521 | 76 | 198 | 1.7 | 6.1 | 0.00 | 0.00 | 0.00 | 40 | 1009.7 |
| 20260504212024 | 75 | 193 | 1.7 | 7.8 | 0.00 | 0.00 | 0.00 | 40 | 1009.7 |
| 20260504211521 | 75 | 201 | 3.5 | 7.8 | 0.00 | 0.00 | 0.00 | 39 | 1009.8 |
| 20260504211019 | 75 | 244 | 1.7 | 7.0 | 0.00 | 0.00 | 0.00 | 41 | 1009.9 |
| 20260504210519 | 75 | 296 | 0.9 | 6.1 | 0.00 | 0.00 | 0.00 | 41 | 1010.0 |
| 20260504210019 | 74 | 224 | 1.7 | 7.0 | 0.00 | 0.00 | 0.00 | 42 | 1010.0 |
| 20260504205519 | 74 | 180 | 2.6 | 7.0 | 0.00 | 0.00 | 0.00 | 42 | 1010.1 |
| 20260504205019 | 74 | 279 | 1.7 | 4.3 | 0.00 | 0.00 | 0.00 | 42 | 1009.9 |